sensor_id;sensor_type;location;lat;lon;timestamp;temperature;humidity
18613;DHT22;9436;52.152;21.032;2022-10-31T00:00:08;9.90;99.90
18613;DHT22;9436;52.152;21.032;2022-10-31T00:02:37;9.80;99.90
18613;DHT22;9436;52.152;21.032;2022-10-31T00:05:04;9.80;99.90
18613;DHT22;9436;52.152;21.032;2022-10-31T00:07:32;9.80;99.90
18613;DHT22;9436;52.152;21.032;2022-10-31T00:10:00;9.80;99.90
18613;DHT22;9436;52.152;21.032;2022-10-31T00:12:27;9.70;99.90
18613;DHT22;9436;52.152;21.032;2022-10-31T00:14:54;9.80;99.90
18613;DHT22;9436;52.152;21.032;2022-10-31T00:17:21;9.70;99.90
18613;DHT22;9436;52.152;21.032;2022-10-31T00:19:48;9.70;99.90
18613;DHT22;9436;52.152;21.032;2022-10-31T00:22:15;9.70;99.90
18613;DHT22;9436;52.152;21.032;2022-10-31T00:24:43;9.70;99.90
18613;DHT22;9436;52.152;21.032;2022-10-31T00:27:10;9.70;99.90
18613;DHT22;9436;52.152;21.032;2022-10-31T00:29:37;9.60;99.90
18613;DHT22;9436;52.152;21.032;2022-10-31T00:32:04;9.60;99.90
18613;DHT22;9436;52.152;21.032;2022-10-31T00:34:32;9.60;99.90
18613;DHT22;9436;52.152;21.032;2022-10-31T00:36:59;9.60;99.90
18613;DHT22;9436;52.152;21.032;2022-10-31T00:39:25;9.60;99.90
18613;DHT22;9436;52.152;21.032;2022-10-31T00:41:54;9.60;99.90
18613;DHT22;9436;52.152;21.032;2022-10-31T00:44:21;9.60;99.90
18613;DHT22;9436;52.152;21.032;2022-10-31T00:46:48;9.50;99.90
18613;DHT22;9436;52.152;21.032;2022-10-31T00:49:15;9.40;99.90
18613;DHT22;9436;52.152;21.032;2022-10-31T00:51:42;9.50;99.90
18613;DHT22;9436;52.152;21.032;2022-10-31T00:54:09;9.50;99.90
18613;DHT22;9436;52.152;21.032;2022-10-31T00:56:36;9.50;99.90
18613;DHT22;9436;52.152;21.032;2022-10-31T00:59:04;9.50;99.90
18613;DHT22;9436;52.152;21.032;2022-10-31T01:01:31;9.50;99.90
18613;DHT22;9436;52.152;21.032;2022-10-31T01:03:58;9.50;99.90
18613;DHT22;9436;52.152;21.032;2022-10-31T01:06:25;9.50;99.90
18613;DHT22;9436;52.152;21.032;2022-10-31T01:08:52;9.40;99.90
18613;DHT22;9436;52.152;21.032;2022-10-31T01:11:22;9.40;99.90
18613;DHT22;9436;52.152;21.032;2022-10-31T01:13:51;9.40;99.90
18613;DHT22;9436;52.152;21.032;2022-10-31T01:16:21;9.40;99.90
18613;DHT22;9436;52.152;21.032;2022-10-31T01:18:48;9.40;99.90
18613;DHT22;9436;52.152;21.032;2022-10-31T01:21:17;9.40;99.90
18613;DHT22;9436;52.152;21.032;2022-10-31T01:23:45;9.30;99.90
18613;DHT22;9436;52.152;21.032;2022-10-31T01:26:14;9.30;99.90
18613;DHT22;9436;52.152;21.032;2022-10-31T01:28:44;9.30;99.90
18613;DHT22;9436;52.152;21.032;2022-10-31T01:31:12;9.30;99.90
18613;DHT22;9436;52.152;21.032;2022-10-31T01:33:41;9.20;99.90
18613;DHT22;9436;52.152;21.032;2022-10-31T01:36:13;9.20;99.90
18613;DHT22;9436;52.152;21.032;2022-10-31T01:38:41;9.20;99.90
18613;DHT22;9436;52.152;21.032;2022-10-31T01:41:09;9.10;99.90
18613;DHT22;9436;52.152;21.032;2022-10-31T01:43:47;9.10;99.90
18613;DHT22;9436;52.152;21.032;2022-10-31T01:46:17;9.00;99.90
18613;DHT22;9436;52.152;21.032;2022-10-31T01:48:45;9.00;99.90
18613;DHT22;9436;52.152;21.032;2022-10-31T01:51:14;9.00;99.90
18613;DHT22;9436;52.152;21.032;2022-10-31T01:53:44;9.10;99.90
18613;DHT22;9436;52.152;21.032;2022-10-31T01:56:13;9.10;99.90
18613;DHT22;9436;52.152;21.032;2022-10-31T01:58:45;9.00;99.90
18613;DHT22;9436;52.152;21.032;2022-10-31T02:01:13;9.10;99.90
18613;DHT22;9436;52.152;21.032;2022-10-31T02:03:41;9.00;99.90
18613;DHT22;9436;52.152;21.032;2022-10-31T02:06:17;9.10;99.90
18613;DHT22;9436;52.152;21.032;2022-10-31T02:08:46;9.00;99.90
18613;DHT22;9436;52.152;21.032;2022-10-31T02:11:13;9.00;99.90
18613;DHT22;9436;52.152;21.032;2022-10-31T02:13:41;8.90;99.90
18613;DHT22;9436;52.152;21.032;2022-10-31T02:16:09;9.00;99.90
18613;DHT22;9436;52.152;21.032;2022-10-31T02:18:36;9.00;99.90
18613;DHT22;9436;52.152;21.032;2022-10-31T02:21:10;9.00;99.90
18613;DHT22;9436;52.152;21.032;2022-10-31T02:24:07;9.00;99.90
18613;DHT22;9436;52.152;21.032;2022-10-31T02:26:52;9.00;99.90
18613;DHT22;9436;52.152;21.032;2022-10-31T02:32:31;9.00;99.90
18613;DHT22;9436;52.152;21.032;2022-10-31T02:35:10;9.10;99.90
18613;DHT22;9436;52.152;21.032;2022-10-31T02:37:43;9.00;99.90
18613;DHT22;9436;52.152;21.032;2022-10-31T02:40:17;8.90;99.90
18613;DHT22;9436;52.152;21.032;2022-10-31T02:42:53;9.00;99.90
18613;DHT22;9436;52.152;21.032;2022-10-31T02:45:28;9.00;99.90
18613;DHT22;9436;52.152;21.032;2022-10-31T02:48:02;9.00;99.90
18613;DHT22;9436;52.152;21.032;2022-10-31T02:50:34;9.00;99.90
18613;DHT22;9436;52.152;21.032;2022-10-31T02:53:02;9.00;99.90
18613;DHT22;9436;52.152;21.032;2022-10-31T02:55:47;9.00;99.90
18613;DHT22;9436;52.152;21.032;2022-10-31T02:58:18;9.00;99.90
18613;DHT22;9436;52.152;21.032;2022-10-31T03:00:54;8.90;99.90
18613;DHT22;9436;52.152;21.032;2022-10-31T03:03:29;8.90;99.90
18613;DHT22;9436;52.152;21.032;2022-10-31T03:06:01;8.90;99.90
18613;DHT22;9436;52.152;21.032;2022-10-31T03:08:34;8.90;99.90
18613;DHT22;9436;52.152;21.032;2022-10-31T03:11:04;8.90;99.90
18613;DHT22;9436;52.152;21.032;2022-10-31T03:13:35;8.80;99.90
18613;DHT22;9436;52.152;21.032;2022-10-31T03:16:11;8.80;99.90
18613;DHT22;9436;52.152;21.032;2022-10-31T03:18:46;8.80;99.90
18613;DHT22;9436;52.152;21.032;2022-10-31T03:21:20;8.90;99.90
18613;DHT22;9436;52.152;21.032;2022-10-31T03:23:49;8.90;99.90
18613;DHT22;9436;52.152;21.032;2022-10-31T03:26:17;8.80;99.90
18613;DHT22;9436;52.152;21.032;2022-10-31T03:28:49;8.90;99.90
18613;DHT22;9436;52.152;21.032;2022-10-31T03:31:19;8.80;99.90
18613;DHT22;9436;52.152;21.032;2022-10-31T03:33:50;8.80;99.90
18613;DHT22;9436;52.152;21.032;2022-10-31T03:36:19;8.80;99.90
18613;DHT22;9436;52.152;21.032;2022-10-31T03:38:46;8.80;99.90
18613;DHT22;9436;52.152;21.032;2022-10-31T03:41:20;8.80;99.90
18613;DHT22;9436;52.152;21.032;2022-10-31T03:43:53;8.80;99.90
18613;DHT22;9436;52.152;21.032;2022-10-31T03:46:21;8.80;99.90
18613;DHT22;9436;52.152;21.032;2022-10-31T03:48:50;8.80;99.90
18613;DHT22;9436;52.152;21.032;2022-10-31T03:51:22;8.80;99.90
18613;DHT22;9436;52.152;21.032;2022-10-31T03:53:54;8.70;99.90
18613;DHT22;9436;52.152;21.032;2022-10-31T03:56:27;8.70;99.90
18613;DHT22;9436;52.152;21.032;2022-10-31T03:58:58;8.70;99.90
18613;DHT22;9436;52.152;21.032;2022-10-31T04:01:29;8.70;99.90
18613;DHT22;9436;52.152;21.032;2022-10-31T04:04:00;8.70;99.90
18613;DHT22;9436;52.152;21.032;2022-10-31T04:06:30;8.60;99.90
18613;DHT22;9436;52.152;21.032;2022-10-31T04:08:59;8.60;99.90
18613;DHT22;9436;52.152;21.032;2022-10-31T04:11:30;8.60;99.90
18613;DHT22;9436;52.152;21.032;2022-10-31T04:13:58;8.50;99.90
18613;DHT22;9436;52.152;21.032;2022-10-31T04:16:26;8.50;99.90
18613;DHT22;9436;52.152;21.032;2022-10-31T04:18:54;8.50;99.90
18613;DHT22;9436;52.152;21.032;2022-10-31T04:21:27;8.60;99.90
18613;DHT22;9436;52.152;21.032;2022-10-31T04:23:55;8.50;99.90
18613;DHT22;9436;52.152;21.032;2022-10-31T04:26:22;8.50;99.90
18613;DHT22;9436;52.152;21.032;2022-10-31T04:28:49;8.50;99.90
18613;DHT22;9436;52.152;21.032;2022-10-31T04:31:16;8.50;99.90
18613;DHT22;9436;52.152;21.032;2022-10-31T04:33:43;8.50;99.90
18613;DHT22;9436;52.152;21.032;2022-10-31T04:36:10;8.50;99.90
18613;DHT22;9436;52.152;21.032;2022-10-31T04:38:38;8.50;99.90
18613;DHT22;9436;52.152;21.032;2022-10-31T04:41:05;8.50;99.90
18613;DHT22;9436;52.152;21.032;2022-10-31T04:43:32;8.50;99.90
18613;DHT22;9436;52.152;21.032;2022-10-31T04:45:59;8.50;99.90
18613;DHT22;9436;52.152;21.032;2022-10-31T04:48:27;8.40;99.90
18613;DHT22;9436;52.152;21.032;2022-10-31T04:50:58;8.50;99.90
18613;DHT22;9436;52.152;21.032;2022-10-31T04:53:25;8.40;99.90
18613;DHT22;9436;52.152;21.032;2022-10-31T04:55:54;8.40;99.90
18613;DHT22;9436;52.152;21.032;2022-10-31T04:58:21;8.40;99.90
18613;DHT22;9436;52.152;21.032;2022-10-31T05:00:51;8.40;99.90
18613;DHT22;9436;52.152;21.032;2022-10-31T05:03:19;8.30;99.90
18613;DHT22;9436;52.152;21.032;2022-10-31T05:05:46;8.30;99.90
18613;DHT22;9436;52.152;21.032;2022-10-31T05:08:13;8.30;99.90
18613;DHT22;9436;52.152;21.032;2022-10-31T05:10:40;8.30;99.90
18613;DHT22;9436;52.152;21.032;2022-10-31T05:13:10;8.30;99.90
18613;DHT22;9436;52.152;21.032;2022-10-31T05:15:38;8.30;99.90
18613;DHT22;9436;52.152;21.032;2022-10-31T05:18:05;8.30;99.90
18613;DHT22;9436;52.152;21.032;2022-10-31T05:20:32;8.30;99.90
18613;DHT22;9436;52.152;21.032;2022-10-31T05:22:59;8.30;99.90
18613;DHT22;9436;52.152;21.032;2022-10-31T05:25:27;8.30;99.90
18613;DHT22;9436;52.152;21.032;2022-10-31T05:27:56;8.30;99.90
18613;DHT22;9436;52.152;21.032;2022-10-31T05:30:26;8.20;99.90
18613;DHT22;9436;52.152;21.032;2022-10-31T05:32:54;8.20;99.90
18613;DHT22;9436;52.152;21.032;2022-10-31T05:35:23;8.20;99.90
18613;DHT22;9436;52.152;21.032;2022-10-31T05:37:50;8.30;99.90
18613;DHT22;9436;52.152;21.032;2022-10-31T05:40:18;8.30;99.90
18613;DHT22;9436;52.152;21.032;2022-10-31T05:42:46;8.30;99.90
18613;DHT22;9436;52.152;21.032;2022-10-31T05:45:15;8.30;99.90
18613;DHT22;9436;52.152;21.032;2022-10-31T05:47:50;8.30;99.90
18613;DHT22;9436;52.152;21.032;2022-10-31T05:50:17;8.30;99.90
18613;DHT22;9436;52.152;21.032;2022-10-31T05:52:44;8.30;99.90
18613;DHT22;9436;52.152;21.032;2022-10-31T05:55:11;8.30;99.90
18613;DHT22;9436;52.152;21.032;2022-10-31T05:57:38;8.30;99.90
18613;DHT22;9436;52.152;21.032;2022-10-31T06:00:06;8.20;99.90
18613;DHT22;9436;52.152;21.032;2022-10-31T06:02:33;8.30;99.90
18613;DHT22;9436;52.152;21.032;2022-10-31T06:05:02;8.30;99.90
18613;DHT22;9436;52.152;21.032;2022-10-31T06:07:32;8.30;99.90
18613;DHT22;9436;52.152;21.032;2022-10-31T06:10:00;8.30;99.90
18613;DHT22;9436;52.152;21.032;2022-10-31T06:12:27;8.30;99.90
18613;DHT22;9436;52.152;21.032;2022-10-31T06:14:54;8.30;99.90
18613;DHT22;9436;52.152;21.032;2022-10-31T06:17:21;8.40;99.90
18613;DHT22;9436;52.152;21.032;2022-10-31T06:19:48;8.40;99.90
18613;DHT22;9436;52.152;21.032;2022-10-31T06:22:16;8.40;99.90
18613;DHT22;9436;52.152;21.032;2022-10-31T06:24:43;8.40;99.90
18613;DHT22;9436;52.152;21.032;2022-10-31T06:27:10;8.50;99.90
18613;DHT22;9436;52.152;21.032;2022-10-31T06:29:37;8.40;99.90
18613;DHT22;9436;52.152;21.032;2022-10-31T06:32:05;8.50;99.90
18613;DHT22;9436;52.152;21.032;2022-10-31T06:34:32;8.50;99.90
18613;DHT22;9436;52.152;21.032;2022-10-31T06:36:59;8.50;99.90
18613;DHT22;9436;52.152;21.032;2022-10-31T06:39:27;8.50;99.90
18613;DHT22;9436;52.152;21.032;2022-10-31T06:41:54;8.50;99.90
18613;DHT22;9436;52.152;21.032;2022-10-31T06:44:21;8.50;99.90
18613;DHT22;9436;52.152;21.032;2022-10-31T06:46:48;8.50;99.90
18613;DHT22;9436;52.152;21.032;2022-10-31T06:49:15;8.50;99.90
18613;DHT22;9436;52.152;21.032;2022-10-31T06:51:42;8.60;99.90
18613;DHT22;9436;52.152;21.032;2022-10-31T06:54:09;8.60;99.90
18613;DHT22;9436;52.152;21.032;2022-10-31T06:56:38;8.60;99.90
18613;DHT22;9436;52.152;21.032;2022-10-31T06:59:05;8.50;99.90
18613;DHT22;9436;52.152;21.032;2022-10-31T07:01:32;8.60;99.90
18613;DHT22;9436;52.152;21.032;2022-10-31T07:04:00;8.70;99.90
18613;DHT22;9436;52.152;21.032;2022-10-31T07:06:27;8.80;99.90
18613;DHT22;9436;52.152;21.032;2022-10-31T07:08:54;8.80;99.90
18613;DHT22;9436;52.152;21.032;2022-10-31T07:11:21;8.90;99.90
18613;DHT22;9436;52.152;21.032;2022-10-31T07:13:49;9.00;99.90
18613;DHT22;9436;52.152;21.032;2022-10-31T07:16:16;9.20;99.90
18613;DHT22;9436;52.152;21.032;2022-10-31T07:18:43;9.30;99.90
18613;DHT22;9436;52.152;21.032;2022-10-31T07:21:10;9.40;99.90
18613;DHT22;9436;52.152;21.032;2022-10-31T07:23:37;9.40;99.90
18613;DHT22;9436;52.152;21.032;2022-10-31T07:26:04;9.50;99.90
18613;DHT22;9436;52.152;21.032;2022-10-31T07:28:31;9.50;99.90
18613;DHT22;9436;52.152;21.032;2022-10-31T07:31:00;9.80;99.90
18613;DHT22;9436;52.152;21.032;2022-10-31T07:33:27;10.00;99.90
18613;DHT22;9436;52.152;21.032;2022-10-31T07:35:54;10.20;99.90
18613;DHT22;9436;52.152;21.032;2022-10-31T07:38:21;10.40;99.90
18613;DHT22;9436;52.152;21.032;2022-10-31T07:40:50;10.60;99.90
18613;DHT22;9436;52.152;21.032;2022-10-31T07:43:18;10.70;99.90
18613;DHT22;9436;52.152;21.032;2022-10-31T07:45:49;10.80;99.90
18613;DHT22;9436;52.152;21.032;2022-10-31T07:48:18;10.80;99.90
18613;DHT22;9436;52.152;21.032;2022-10-31T07:50:45;10.80;99.90
18613;DHT22;9436;52.152;21.032;2022-10-31T07:53:13;10.80;99.90
18613;DHT22;9436;52.152;21.032;2022-10-31T07:55:40;10.90;99.90
18613;DHT22;9436;52.152;21.032;2022-10-31T07:58:09;11.00;99.90
18613;DHT22;9436;52.152;21.032;2022-10-31T08:00:38;10.80;99.90
18613;DHT22;9436;52.152;21.032;2022-10-31T08:03:07;10.70;99.90
18613;DHT22;9436;52.152;21.032;2022-10-31T08:05:36;10.80;99.90
18613;DHT22;9436;52.152;21.032;2022-10-31T08:08:04;10.60;99.90
18613;DHT22;9436;52.152;21.032;2022-10-31T08:10:31;10.50;99.90
18613;DHT22;9436;52.152;21.032;2022-10-31T08:13:00;10.20;99.90
18613;DHT22;9436;52.152;21.032;2022-10-31T08:15:27;10.20;99.90
18613;DHT22;9436;52.152;21.032;2022-10-31T08:17:54;10.10;99.90
18613;DHT22;9436;52.152;21.032;2022-10-31T08:20:21;10.10;99.90
18613;DHT22;9436;52.152;21.032;2022-10-31T08:22:58;10.20;99.90
18613;DHT22;9436;52.152;21.032;2022-10-31T08:25:26;10.20;99.90
18613;DHT22;9436;52.152;21.032;2022-10-31T08:27:55;10.30;99.90
18613;DHT22;9436;52.152;21.032;2022-10-31T08:30:24;10.30;99.90
18613;DHT22;9436;52.152;21.032;2022-10-31T08:32:58;10.30;99.90
18613;DHT22;9436;52.152;21.032;2022-10-31T08:35:25;10.40;99.90
18613;DHT22;9436;52.152;21.032;2022-10-31T08:37:53;10.50;99.90
18613;DHT22;9436;52.152;21.032;2022-10-31T08:40:22;10.50;99.90
18613;DHT22;9436;52.152;21.032;2022-10-31T08:42:56;10.60;99.90
18613;DHT22;9436;52.152;21.032;2022-10-31T08:45:23;10.70;99.90
18613;DHT22;9436;52.152;21.032;2022-10-31T08:47:50;10.80;99.90
18613;DHT22;9436;52.152;21.032;2022-10-31T08:50:17;10.90;99.90
18613;DHT22;9436;52.152;21.032;2022-10-31T08:52:44;11.30;99.90
18613;DHT22;9436;52.152;21.032;2022-10-31T08:55:11;11.90;99.90
18613;DHT22;9436;52.152;21.032;2022-10-31T08:57:39;12.60;99.90
18613;DHT22;9436;52.152;21.032;2022-10-31T09:00:08;13.10;99.90
18613;DHT22;9436;52.152;21.032;2022-10-31T09:02:35;13.40;99.90
18613;DHT22;9436;52.152;21.032;2022-10-31T09:05:03;13.60;99.90
18613;DHT22;9436;52.152;21.032;2022-10-31T09:07:30;13.40;99.90
18613;DHT22;9436;52.152;21.032;2022-10-31T09:09:57;13.20;99.90
18613;DHT22;9436;52.152;21.032;2022-10-31T09:12:24;13.00;99.90
18613;DHT22;9436;52.152;21.032;2022-10-31T09:14:53;12.90;99.90
18613;DHT22;9436;52.152;21.032;2022-10-31T09:17:20;12.80;99.90
18613;DHT22;9436;52.152;21.032;2022-10-31T09:19:47;12.70;99.90
18613;DHT22;9436;52.152;21.032;2022-10-31T09:22:14;12.60;99.90
18613;DHT22;9436;52.152;21.032;2022-10-31T09:24:41;12.60;99.90
18613;DHT22;9436;52.152;21.032;2022-10-31T09:27:08;12.60;99.90
18613;DHT22;9436;52.152;21.032;2022-10-31T09:29:35;12.60;99.90
18613;DHT22;9436;52.152;21.032;2022-10-31T09:32:04;12.60;99.90
18613;DHT22;9436;52.152;21.032;2022-10-31T09:34:31;12.70;99.90
18613;DHT22;9436;52.152;21.032;2022-10-31T09:36:58;12.70;99.90
18613;DHT22;9436;52.152;21.032;2022-10-31T09:39:25;12.70;99.90
18613;DHT22;9436;52.152;21.032;2022-10-31T09:42:03;12.80;99.90
18613;DHT22;9436;52.152;21.032;2022-10-31T09:44:41;12.90;99.90
18613;DHT22;9436;52.152;21.032;2022-10-31T09:47:19;13.00;99.90
18613;DHT22;9436;52.152;21.032;2022-10-31T09:49:58;13.00;99.90
18613;DHT22;9436;52.152;21.032;2022-10-31T09:52:29;13.00;99.90
18613;DHT22;9436;52.152;21.032;2022-10-31T09:55:00;13.10;99.90
18613;DHT22;9436;52.152;21.032;2022-10-31T09:57:31;13.10;99.90
18613;DHT22;9436;52.152;21.032;2022-10-31T09:59:59;13.20;99.90
18613;DHT22;9436;52.152;21.032;2022-10-31T10:02:32;13.20;99.90
18613;DHT22;9436;52.152;21.032;2022-10-31T10:05:03;13.20;99.90
18613;DHT22;9436;52.152;21.032;2022-10-31T10:07:38;13.20;99.90
18613;DHT22;9436;52.152;21.032;2022-10-31T10:10:14;13.20;99.90
18613;DHT22;9436;52.152;21.032;2022-10-31T10:12:53;13.30;99.90
18613;DHT22;9436;52.152;21.032;2022-10-31T10:15:41;13.40;99.90
18613;DHT22;9436;52.152;21.032;2022-10-31T10:18:21;13.50;99.90
18613;DHT22;9436;52.152;21.032;2022-10-31T10:20:59;13.50;99.90
18613;DHT22;9436;52.152;21.032;2022-10-31T10:23:45;13.60;99.90
18613;DHT22;9436;52.152;21.032;2022-10-31T10:26:17;13.60;99.90
18613;DHT22;9436;52.152;21.032;2022-10-31T10:28:48;13.60;99.90
18613;DHT22;9436;52.152;21.032;2022-10-31T10:31:18;13.70;99.90
18613;DHT22;9436;52.152;21.032;2022-10-31T10:33:57;13.80;99.90
18613;DHT22;9436;52.152;21.032;2022-10-31T10:36:29;13.90;99.90
18613;DHT22;9436;52.152;21.032;2022-10-31T10:38:59;14.00;99.90
18613;DHT22;9436;52.152;21.032;2022-10-31T10:41:30;14.10;99.90
18613;DHT22;9436;52.152;21.032;2022-10-31T10:43:58;14.10;99.90
18613;DHT22;9436;52.152;21.032;2022-10-31T10:46:29;14.20;99.90
18613;DHT22;9436;52.152;21.032;2022-10-31T10:49:18;14.30;99.90
18613;DHT22;9436;52.152;21.032;2022-10-31T10:51:51;14.30;99.90
18613;DHT22;9436;52.152;21.032;2022-10-31T10:54:45;14.40;99.90
18613;DHT22;9436;52.152;21.032;2022-10-31T10:57:27;14.40;99.90
18613;DHT22;9436;52.152;21.032;2022-10-31T10:59:55;14.50;99.90
18613;DHT22;9436;52.152;21.032;2022-10-31T11:02:25;14.60;99.90
18613;DHT22;9436;52.152;21.032;2022-10-31T11:04:55;14.70;99.90
18613;DHT22;9436;52.152;21.032;2022-10-31T11:07:23;14.70;99.90
18613;DHT22;9436;52.152;21.032;2022-10-31T11:09:50;14.80;99.90
18613;DHT22;9436;52.152;21.032;2022-10-31T11:12:21;14.80;99.90
18613;DHT22;9436;52.152;21.032;2022-10-31T11:14:51;14.90;99.90
18613;DHT22;9436;52.152;21.032;2022-10-31T11:17:26;15.00;99.90
18613;DHT22;9436;52.152;21.032;2022-10-31T11:20:05;15.10;99.90
18613;DHT22;9436;52.152;21.032;2022-10-31T11:22:32;15.20;99.90
18613;DHT22;9436;52.152;21.032;2022-10-31T11:24:59;15.20;99.90
18613;DHT22;9436;52.152;21.032;2022-10-31T11:27:26;15.30;99.90
18613;DHT22;9436;52.152;21.032;2022-10-31T11:30:04;15.40;99.90
18613;DHT22;9436;52.152;21.032;2022-10-31T11:32:31;15.40;99.90
18613;DHT22;9436;52.152;21.032;2022-10-31T11:35:01;15.40;99.90
18613;DHT22;9436;52.152;21.032;2022-10-31T11:37:34;15.50;99.90
18613;DHT22;9436;52.152;21.032;2022-10-31T11:40:05;15.60;99.90
18613;DHT22;9436;52.152;21.032;2022-10-31T11:42:37;15.70;99.90
18613;DHT22;9436;52.152;21.032;2022-10-31T11:45:15;15.80;99.90
18613;DHT22;9436;52.152;21.032;2022-10-31T11:47:46;15.90;99.90
18613;DHT22;9436;52.152;21.032;2022-10-31T11:50:19;16.00;99.90
18613;DHT22;9436;52.152;21.032;2022-10-31T11:52:49;16.00;99.90
18613;DHT22;9436;52.152;21.032;2022-10-31T11:55:29;16.10;99.90
18613;DHT22;9436;52.152;21.032;2022-10-31T11:57:57;16.00;99.90
18613;DHT22;9436;52.152;21.032;2022-10-31T12:00:26;16.10;99.90
18613;DHT22;9436;52.152;21.032;2022-10-31T12:03:10;16.10;99.90
18613;DHT22;9436;52.152;21.032;2022-10-31T12:05:39;16.10;99.90
18613;DHT22;9436;52.152;21.032;2022-10-31T12:08:10;16.20;99.90
18613;DHT22;9436;52.152;21.032;2022-10-31T12:10:44;16.20;99.90
18613;DHT22;9436;52.152;21.032;2022-10-31T12:13:29;16.20;99.90
18613;DHT22;9436;52.152;21.032;2022-10-31T12:16:02;16.30;99.90
18613;DHT22;9436;52.152;21.032;2022-10-31T12:18:53;16.30;99.90
18613;DHT22;9436;52.152;21.032;2022-10-31T12:21:31;16.30;99.90
18613;DHT22;9436;52.152;21.032;2022-10-31T12:24:09;16.30;99.90
18613;DHT22;9436;52.152;21.032;2022-10-31T12:26:45;16.30;99.90
18613;DHT22;9436;52.152;21.032;2022-10-31T12:29:31;16.30;99.90
18613;DHT22;9436;52.152;21.032;2022-10-31T12:32:17;16.30;99.90
18613;DHT22;9436;52.152;21.032;2022-10-31T12:37:57;16.30;99.90
18613;DHT22;9436;52.152;21.032;2022-10-31T12:40:40;16.30;99.90
18613;DHT22;9436;52.152;21.032;2022-10-31T12:43:24;16.10;99.90
18613;DHT22;9436;52.152;21.032;2022-10-31T12:45:55;16.10;99.90
18613;DHT22;9436;52.152;21.032;2022-10-31T12:48:37;16.10;99.90
18613;DHT22;9436;52.152;21.032;2022-10-31T12:51:15;16.10;99.90
18613;DHT22;9436;52.152;21.032;2022-10-31T12:53:56;16.10;99.90
18613;DHT22;9436;52.152;21.032;2022-10-31T12:56:37;16.00;99.90
18613;DHT22;9436;52.152;21.032;2022-10-31T12:59:13;16.00;99.90
18613;DHT22;9436;52.152;21.032;2022-10-31T13:01:47;15.90;99.90
18613;DHT22;9436;52.152;21.032;2022-10-31T13:04:21;15.80;99.90
18613;DHT22;9436;52.152;21.032;2022-10-31T13:06:53;15.80;99.90
18613;DHT22;9436;52.152;21.032;2022-10-31T13:09:26;15.80;99.90
18613;DHT22;9436;52.152;21.032;2022-10-31T13:12:00;15.70;99.90
18613;DHT22;9436;52.152;21.032;2022-10-31T13:14:33;15.70;99.90
18613;DHT22;9436;52.152;21.032;2022-10-31T13:17:03;15.70;99.90
18613;DHT22;9436;52.152;21.032;2022-10-31T13:19:34;15.70;99.90
18613;DHT22;9436;52.152;21.032;2022-10-31T13:22:06;15.70;99.90
18613;DHT22;9436;52.152;21.032;2022-10-31T13:24:36;15.50;99.90
18613;DHT22;9436;52.152;21.032;2022-10-31T13:27:13;15.50;99.90
18613;DHT22;9436;52.152;21.032;2022-10-31T13:29:44;15.40;99.90
18613;DHT22;9436;52.152;21.032;2022-10-31T13:32:13;15.40;99.90
18613;DHT22;9436;52.152;21.032;2022-10-31T13:34:44;15.30;99.90
18613;DHT22;9436;52.152;21.032;2022-10-31T13:37:16;15.30;99.90
18613;DHT22;9436;52.152;21.032;2022-10-31T13:39:58;15.10;99.90
18613;DHT22;9436;52.152;21.032;2022-10-31T13:42:40;15.10;99.90
18613;DHT22;9436;52.152;21.032;2022-10-31T13:45:16;15.00;99.90
18613;DHT22;9436;52.152;21.032;2022-10-31T13:47:55;15.00;99.90
18613;DHT22;9436;52.152;21.032;2022-10-31T13:50:24;14.90;99.90
18613;DHT22;9436;52.152;21.032;2022-10-31T13:52:52;14.90;99.90
18613;DHT22;9436;52.152;21.032;2022-10-31T13:55:39;14.90;99.90
18613;DHT22;9436;52.152;21.032;2022-10-31T13:58:22;14.90;99.90
18613;DHT22;9436;52.152;21.032;2022-10-31T14:01:14;14.80;99.90
18613;DHT22;9436;52.152;21.032;2022-10-31T14:03:44;14.70;99.90
18613;DHT22;9436;52.152;21.032;2022-10-31T14:06:12;14.70;99.90
18613;DHT22;9436;52.152;21.032;2022-10-31T14:08:51;14.60;99.90
18613;DHT22;9436;52.152;21.032;2022-10-31T14:11:23;14.60;99.90
18613;DHT22;9436;52.152;21.032;2022-10-31T14:13:54;14.50;99.90
18613;DHT22;9436;52.152;21.032;2022-10-31T14:16:24;14.40;99.90
18613;DHT22;9436;52.152;21.032;2022-10-31T14:18:59;14.30;99.90
18613;DHT22;9436;52.152;21.032;2022-10-31T14:21:28;14.20;99.90
18613;DHT22;9436;52.152;21.032;2022-10-31T14:23:57;14.20;99.90
18613;DHT22;9436;52.152;21.032;2022-10-31T14:26:33;14.10;99.90
18613;DHT22;9436;52.152;21.032;2022-10-31T14:29:22;14.00;99.90
18613;DHT22;9436;52.152;21.032;2022-10-31T14:31:55;14.00;99.90
18613;DHT22;9436;52.152;21.032;2022-10-31T14:34:25;13.80;99.90
18613;DHT22;9436;52.152;21.032;2022-10-31T14:37:16;13.70;99.90
18613;DHT22;9436;52.152;21.032;2022-10-31T14:39:58;13.60;99.90
18613;DHT22;9436;52.152;21.032;2022-10-31T14:42:39;13.60;99.90
18613;DHT22;9436;52.152;21.032;2022-10-31T14:45:34;13.50;99.90
18613;DHT22;9436;52.152;21.032;2022-10-31T14:48:12;13.40;99.90
18613;DHT22;9436;52.152;21.032;2022-10-31T14:50:48;13.40;99.90
18613;DHT22;9436;52.152;21.032;2022-10-31T14:53:20;13.30;99.90
18613;DHT22;9436;52.152;21.032;2022-10-31T14:55:51;13.20;99.90
18613;DHT22;9436;52.152;21.032;2022-10-31T14:58:22;13.20;99.90
18613;DHT22;9436;52.152;21.032;2022-10-31T15:00:55;13.20;99.90
18613;DHT22;9436;52.152;21.032;2022-10-31T15:03:26;13.10;99.90
18613;DHT22;9436;52.152;21.032;2022-10-31T15:05:56;13.10;99.90
18613;DHT22;9436;52.152;21.032;2022-10-31T15:08:34;13.10;99.90
18613;DHT22;9436;52.152;21.032;2022-10-31T15:11:10;13.00;99.90
18613;DHT22;9436;52.152;21.032;2022-10-31T15:13:42;13.00;99.90
18613;DHT22;9436;52.152;21.032;2022-10-31T15:16:12;13.00;99.90
18613;DHT22;9436;52.152;21.032;2022-10-31T15:18:48;13.00;99.90
18613;DHT22;9436;52.152;21.032;2022-10-31T15:21:16;13.00;99.90
18613;DHT22;9436;52.152;21.032;2022-10-31T15:23:44;13.00;99.90
18613;DHT22;9436;52.152;21.032;2022-10-31T15:26:16;13.00;99.90
18613;DHT22;9436;52.152;21.032;2022-10-31T15:28:44;12.90;99.90
18613;DHT22;9436;52.152;21.032;2022-10-31T15:31:17;12.90;99.90
18613;DHT22;9436;52.152;21.032;2022-10-31T15:33:47;12.90;99.90
18613;DHT22;9436;52.152;21.032;2022-10-31T15:36:20;12.90;99.90
18613;DHT22;9436;52.152;21.032;2022-10-31T15:38:48;12.90;99.90
18613;DHT22;9436;52.152;21.032;2022-10-31T15:41:27;12.90;99.90
18613;DHT22;9436;52.152;21.032;2022-10-31T15:43:57;12.80;99.90
18613;DHT22;9436;52.152;21.032;2022-10-31T15:46:28;12.80;99.90
18613;DHT22;9436;52.152;21.032;2022-10-31T15:48:55;12.90;99.90
18613;DHT22;9436;52.152;21.032;2022-10-31T15:51:27;12.90;99.90
18613;DHT22;9436;52.152;21.032;2022-10-31T15:53:55;12.80;99.90
18613;DHT22;9436;52.152;21.032;2022-10-31T15:56:24;12.80;99.90
18613;DHT22;9436;52.152;21.032;2022-10-31T15:58:53;12.80;99.90
18613;DHT22;9436;52.152;21.032;2022-10-31T16:01:23;12.80;99.90
18613;DHT22;9436;52.152;21.032;2022-10-31T16:04:19;12.80;99.90
18613;DHT22;9436;52.152;21.032;2022-10-31T16:07:00;12.80;99.90